createdAt,value
2019-05-29T04:08:51.365Z,97809.25
2019-05-29T04:13:52.454Z,97819.75
2019-05-29T04:18:53.946Z,97834.42
2019-05-29T04:23:56.226Z,97831.24
2019-05-29T04:28:57.208Z,97840.06
2019-05-29T04:33:58.084Z,97852.58
2019-05-29T04:38:58.956Z,97859.16
2019-05-29T04:43:59.856Z,97858.63
2019-05-29T04:49:00.746Z,97865.09
2019-05-29T04:54:02.146Z,97871.47
2019-05-29T04:59:03.826Z,97877.06
2019-05-29T05:04:04.725Z,97873.31
2019-05-29T05:09:06.396Z,97881.55
2019-05-29T05:14:07.398Z,97891.16
2019-05-29T05:19:08.267Z,97892.84
2019-05-29T05:24:09.150Z,97904.35
2019-05-29T05:29:10.028Z,97907.92
2019-05-29T05:34:10.903Z,97909.57
2019-05-29T05:39:11.784Z,97914.66
2019-05-29T05:44:12.660Z,97915.66
2019-05-29T05:49:13.547Z,97921.91
2019-05-29T05:54:14.412Z,97927.50
2019-05-29T05:59:15.280Z,97928.42
2019-05-29T06:04:16.195Z,97936.22
2019-05-29T06:09:17.048Z,97942.31
2019-05-29T06:14:17.924Z,97949.02
2019-05-29T06:19:19.112Z,97950.92
2019-05-29T06:24:20.094Z,97953.31
2019-05-29T06:29:20.969Z,97962.50
2019-05-29T06:34:21.849Z,97974.02
2019-05-29T06:39:22.725Z,97975.93
2019-05-29T06:44:23.601Z,97980.94
2019-05-29T06:49:24.481Z,97988.42
2019-05-29T06:54:25.361Z,97987.92
2019-05-29T06:59:26.259Z,97994.50
2019-05-29T07:04:27.133Z,97997.13
2019-05-29T07:09:28.008Z,98002.05
2019-05-29T07:14:28.870Z,98007.89
2019-05-29T07:19:47.422Z,98018.86
2019-05-29T07:24:32.540Z,98021.73
2019-05-29T07:29:33.413Z,98021.05
2019-05-29T07:34:49.728Z,98029.56
2019-05-29T07:39:37.383Z,98032.17
2019-05-29T07:44:39.906Z,98040.88
2019-05-29T07:49:44.705Z,98043.23
2019-05-29T07:54:43.963Z,98043.04
2019-05-29T07:59:45.000Z,98046.61
2019-05-29T08:04:47.091Z,98052.55
2019-05-29T08:09:48.173Z,98051.86
2019-05-29T08:14:50.173Z,98047.77
2019-05-29T08:20:05.398Z,98063.91
2019-05-29T08:24:54.375Z,98069.17
2019-05-29T08:29:55.253Z,98070.39
2019-05-29T08:34:56.120Z,98071.05
2019-05-29T08:39:56.992Z,98075.13
2019-05-29T08:44:57.871Z,98076.58
2019-05-29T08:50:16.862Z,98076.54
2019-05-29T08:55:01.824Z,98087.17
2019-05-29T09:00:06.928Z,98089.24
2019-05-29T09:05:08.729Z,98095.73
2019-05-29T09:10:11.627Z,98094.53
2019-05-29T09:15:12.930Z,98092.01
2019-05-29T09:20:29.443Z,98100.19
2019-05-29T09:25:17.081Z,98098.45
2019-05-29T09:30:19.950Z,98107.97
2019-05-29T09:35:21.996Z,98111.70
2019-05-29T09:40:24.946Z,98110.05
2019-05-29T09:45:26.093Z,98114.96
2019-05-29T09:50:27.669Z,98113.16
2019-05-29T09:55:28.752Z,98121.64
2019-05-29T10:00:29.753Z,98120.03
2019-05-29T10:05:31.570Z,98125.52
2019-05-29T10:10:32.490Z,98120.47
2019-05-29T10:15:33.423Z,98134.28
2019-05-29T10:20:34.399Z,98128.78
2019-05-29T10:25:35.347Z,98134.56
2019-05-29T10:30:36.269Z,98137.57
2019-05-29T10:35:37.277Z,98144.73
2019-05-29T10:40:38.242Z,98142.48
2019-05-29T10:45:39.116Z,98145.73
2019-05-29T10:50:39.996Z,98155.69
2019-05-29T10:55:40.966Z,98146.77
2019-05-29T11:00:41.839Z,98148.93
2019-05-29T11:05:42.925Z,98154.31
2019-05-29T11:10:43.803Z,98154.84
2019-05-29T11:15:44.698Z,98160.80
2019-05-29T11:20:45.687Z,98162.95
2019-05-29T11:25:47.768Z,98170.97
2019-05-29T11:30:48.763Z,98171.98
2019-05-29T11:36:02.834Z,98167.68
2019-05-29T11:41:21.083Z,98173.14
2019-05-29T11:45:55.709Z,98176.45
2019-05-29T11:50:56.588Z,98184.58
2019-05-29T11:55:57.837Z,98181.45
2019-05-29T12:00:59.212Z,98193.52
2019-05-29T12:06:03.183Z,98190.08
2019-05-29T12:11:03.132Z,98198.81
2019-05-29T12:16:04.120Z,98200.31
2019-05-29T12:21:05.678Z,98215.99
2019-05-29T12:26:21.908Z,98210.11
2019-05-29T12:31:11.537Z,98223.64
2019-05-29T12:36:12.916Z,98227.55
2019-05-29T12:41:13.839Z,98235.06
2019-05-29T12:46:15.401Z,98239.45
2019-05-29T12:51:16.256Z,98239.38
2019-05-29T12:56:18.558Z,98251.60
2019-05-29T13:01:19.442Z,98253.59
2019-05-29T13:06:21.061Z,98264.61
2019-05-29T13:11:24.627Z,98267.44
2019-05-29T13:16:25.599Z,98270.56
2019-05-29T13:21:26.479Z,98280.38
2019-05-29T13:26:27.378Z,98282.12
2019-05-29T13:31:28.341Z,98290.73
2019-05-29T13:36:29.234Z,98296.80
2019-05-29T13:41:30.444Z,98295.27
2019-05-29T13:46:31.329Z,98296.95
2019-05-29T13:51:32.386Z,98294.89
2019-05-29T13:56:34.011Z,98300.42
2019-05-29T14:01:34.885Z,98308.05
2019-05-29T14:06:41.389Z,98316.17
2019-05-29T14:11:42.684Z,98319.97
2019-05-29T14:16:43.815Z,98326.68
2019-05-29T14:21:45.105Z,98330.63
2019-05-29T14:26:46.260Z,98331.86
2019-05-29T14:31:48.701Z,98341.66
2019-05-29T14:36:49.825Z,98341.42
2019-05-29T14:41:51.187Z,98351.27
2019-05-29T14:46:53.151Z,98357.08
2019-05-29T14:51:54.380Z,98358.77
2019-05-29T14:56:55.595Z,98366.27
2019-05-29T15:01:56.680Z,98368.95
2019-05-29T15:06:58.423Z,98377.75
2019-05-29T15:11:59.303Z,98378.05
2019-05-29T15:17:00.200Z,98383.95
2019-05-29T15:22:01.272Z,98374.25
2019-05-29T15:27:03.515Z,98390.87
2019-05-29T15:32:04.501Z,98405.98
2019-05-29T15:37:08.352Z,98411.03
2019-05-29T15:42:08.947Z,98410.86
2019-05-29T15:47:10.910Z,98412.36
2019-05-29T15:52:13.158Z,98411.46
2019-05-29T15:57:15.206Z,98413.20
2019-05-29T16:02:17.794Z,98417.91
2019-05-29T16:07:19.851Z,98418.27
2019-05-29T16:12:20.723Z,98428.02
2019-05-29T16:17:21.593Z,98440.04
2019-05-29T16:22:22.749Z,98442.20
2019-05-29T16:27:30.025Z,98454.00
2019-05-29T16:32:27.373Z,98463.58
2019-05-29T16:37:28.234Z,98465.34
2019-05-29T16:42:29.131Z,98468.73
2019-05-29T16:47:30.130Z,98467.72
2019-05-29T16:52:31.005Z,98479.52
2019-05-29T16:57:31.884Z,98481.85
2019-05-29T17:02:32.768Z,98479.88
2019-05-29T17:07:33.760Z,98485.39
2019-05-29T17:12:34.602Z,98483.73
2019-05-29T17:17:35.584Z,98495.28
2019-05-29T17:22:36.556Z,98499.98
2019-05-29T17:27:37.441Z,98509.42
2019-05-29T17:32:38.420Z,98520.97
2019-05-29T17:37:39.291Z,98532.06
2019-05-29T17:42:40.170Z,98546.03
2019-05-29T17:47:41.054Z,98538.80
2019-05-29T17:52:41.941Z,98525.85
2019-05-29T17:57:42.795Z,98550.39
2019-05-29T18:02:51.994Z,98556.06
2019-05-29T18:07:46.740Z,98565.47
2019-05-29T18:12:47.600Z,98578.16
2019-05-29T18:17:48.548Z,98578.04
2019-05-29T18:22:49.507Z,98585.33
2019-05-29T18:27:50.384Z,98591.66
2019-05-29T18:32:51.417Z,98606.56
2019-05-29T18:37:52.303Z,98607.08
2019-05-29T18:42:53.167Z,98611.53
2019-05-29T18:47:54.145Z,98619.38
2019-05-29T18:52:55.053Z,98633.23
2019-05-29T18:57:55.927Z,98632.38
2019-05-29T19:02:56.833Z,98639.47
2019-05-29T19:07:57.824Z,98645.55
2019-05-29T19:12:58.708Z,98652.38
2019-05-29T19:17:59.607Z,98663.54
2019-05-29T19:23:00.493Z,98659.28
2019-05-29T19:28:01.376Z,98673.19
2019-05-29T19:33:02.539Z,98672.94
2019-05-29T19:38:03.512Z,98681.72
2019-05-29T19:43:04.603Z,98686.34
2019-05-29T19:48:05.532Z,98687.23
2019-05-29T19:53:06.436Z,98701.02
2019-05-29T19:58:07.288Z,98709.19
2019-05-29T20:03:08.548Z,98709.55
2019-05-29T20:08:09.409Z,98722.61
2019-05-29T20:13:10.309Z,98717.96
2019-05-29T20:18:11.190Z,98718.32
2019-05-29T20:23:12.179Z,98721.00
2019-05-29T20:28:13.064Z,98726.73
2019-05-29T20:33:13.943Z,98726.99
2019-05-29T20:38:14.823Z,98733.69
2019-05-29T20:43:15.822Z,98734.92
2019-05-29T20:48:16.722Z,98740.41
2019-05-29T20:53:17.594Z,98752.70
2019-05-29T20:58:24.690Z,98754.91
2019-05-29T21:03:21.298Z,98758.81
2019-05-29T21:08:22.174Z,98761.85
2019-05-29T21:13:23.163Z,98758.31
2019-05-29T21:18:24.041Z,98753.56
2019-05-29T21:23:25.994Z,98752.47
2019-05-29T21:28:39.200Z,98748.80
2019-05-29T21:33:29.757Z,98757.09
2019-05-29T21:38:30.634Z,98749.56
2019-05-29T21:43:32.170Z,98758.08
2019-05-29T21:48:33.020Z,98748.80
2019-05-29T21:53:33.908Z,98760.86
2019-05-29T21:58:34.788Z,98759.77
2019-05-29T22:03:35.970Z,98765.76
2019-05-29T22:08:38.661Z,98770.39
2019-05-29T22:13:40.948Z,98780.98
2019-05-29T22:18:42.592Z,98791.02
2019-05-29T22:23:43.574Z,98792.09
2019-05-29T22:28:44.531Z,98792.21
2019-05-29T22:33:45.402Z,98793.81
2019-05-29T22:38:46.266Z,98799.28
2019-05-29T22:43:47.145Z,98803.92
2019-05-29T22:48:48.025Z,98806.09
2019-05-29T22:53:48.908Z,98805.88
2019-05-29T22:58:49.780Z,98815.50
2019-05-29T23:03:51.966Z,98808.56
2019-05-29T23:08:54.052Z,98811.60
2019-05-29T23:13:56.190Z,98808.74
2019-05-29T23:18:58.538Z,98818.67
2019-05-29T23:23:59.680Z,98817.44
2019-05-29T23:29:01.004Z,98820.23
2019-05-29T23:34:03.170Z,98827.77
2019-05-29T23:39:04.823Z,98822.44
2019-05-29T23:44:05.818Z,98825.70
2019-05-29T23:49:06.691Z,98828.53
2019-05-29T23:54:07.569Z,98834.99
2019-05-29T23:59:08.447Z,98837.55
